Pulau Tioman — 3EYO9 — position and weather

sailwx.info

Track history (hours):
 
Tides and Currents Weather Stations Pressure Air Temp Water Temp Dewpoint Dewpoint Depression Visibility Wind Speed Wind Dir Waves Ship Positions

Pulau Tioman

Last reported at 2016-Nov-12 21:33 UTC. Time now 2016-Dec-11 08:06 UTC.
Position N 34°09' E 134°59'.
Warning: this ship's position is 28 days out of date.

Length 120 m; draft 5.6 m.

Type: Cargo ship. MMSI: 356613000.

Date/timePositionNaut miles runAvg speedWind from/ knotsBaromVisibWave heightAir tempDewpointWater temp
2016-Nov-12 21:33N 34°09' E 134°59'244 6.2
2016-Nov-11 06:33N 35°20' E 139°43'7 6.9
2016-Nov-11 05:31N 35°27' E 139°41'0 0.0
2016-Nov-11 04:31N 35°27' E 139°41'0 0.0
2016-Nov-11 03:31N 35°27' E 139°41'0 0.0
2016-Nov-11 02:31N 35°27' E 139°41'0 0.0
2016-Nov-11 01:31N 35°27' E 139°41'0 0.0
2016-Nov-11 00:33N 35°27' E 139°41'2 1.6
2016-Nov-10 23:34N 35°26' E 139°42'0 0.1
2016-Nov-10 22:32N 35°26' E 139°42'0 0.0
2016-Nov-10 20:32N 35°26' E 139°42'0 0.0
2016-Nov-10 18:32N 35°26' E 139°42'0 0.0
2016-Nov-10 16:32N 35°26' E 139°42'0 0.0
2016-Nov-10 15:32N 35°26' E 139°42'0 0.0
2016-Nov-10 11:32N 35°26' E 139°42'0 0.0
2016-Nov-10 10:26N 35°26' E 139°42'0 0.1
2016-Nov-10 09:32N 35°26' E 139°42'0 0.0
2016-Nov-10 08:32N 35°26' E 139°42'0 0.0
2016-Nov-10 07:32N 35°26' E 139°42'0 0.0
2016-Nov-10 06:32N 35°26' E 139°42'0 0.0
2016-Nov-10 05:32N 35°26' E 139°42'0 0.0
2016-Nov-10 04:26N 35°26' E 139°42'0 0.0
2016-Nov-10 00:32N 35°26' E 139°42'0 0.0
2016-Nov-09 22:33N 35°26' E 139°42'0 0.0
2016-Nov-09 20:37N 35°26' E 139°42'0 0.0
2016-Nov-09 19:53N 35°26' E 139°42'0 0.0
2016-Nov-09 19:06N 35°26' E 139°42'0 0.0
2016-Nov-09 18:33N 35°26' E 139°42'0 0.0
2016-Nov-09 17:34N 35°26' E 139°42'0 0.0
2016-Nov-09 15:33N 35°26' E 139°42'0 0.0
2016-Nov-09 13:33N 35°26' E 139°42'0 0.0
2016-Nov-09 08:33N 35°26' E 139°42'0 0.0
2016-Nov-09 07:33N 35°26' E 139°42'0 0.0
2016-Nov-09 05:33N 35°26' E 139°42'0 0.1
2016-Nov-09 04:33N 35°26' E 139°42'8 4.1
2016-Nov-09 02:33N 35°18' E 139°45'  
Track history (hours):
 
Tides and Currents Weather Stations Pressure Air Temp Water Temp Dewpoint Dewpoint Depression Visibility Wind Speed Wind Dir Waves Ship Positions

Pulau Tioman

Last reported at 2016-Nov-12 21:33 UTC. Time now 2016-Dec-11 08:06 UTC.
Position N 34°09' E 134°59'.
Warning: this ship's position is 28 days out of date.

Length 120 m; draft 5.6 m.

Type: Cargo ship. MMSI: 356613000.

Date/timePositionNaut miles runAvg speedWind from/ knotsBaromVisibWave heightAir tempDewpointWater temp
2016-Nov-12 21:33N 34°09' E 134°59'244 6.2
2016-Nov-11 06:33N 35°20' E 139°43'7 6.9
2016-Nov-11 05:31N 35°27' E 139°41'0 0.0
2016-Nov-11 04:31N 35°27' E 139°41'0 0.0
2016-Nov-11 03:31N 35°27' E 139°41'0 0.0
2016-Nov-11 02:31N 35°27' E 139°41'0 0.0
2016-Nov-11 01:31N 35°27' E 139°41'0 0.0
2016-Nov-11 00:33N 35°27' E 139°41'2 1.6
2016-Nov-10 23:34N 35°26' E 139°42'0 0.1
2016-Nov-10 22:32N 35°26' E 139°42'0 0.0
2016-Nov-10 20:32N 35°26' E 139°42'0 0.0
2016-Nov-10 18:32N 35°26' E 139°42'0 0.0
2016-Nov-10 16:32N 35°26' E 139°42'0 0.0
2016-Nov-10 15:32N 35°26' E 139°42'0 0.0
2016-Nov-10 11:32N 35°26' E 139°42'0 0.0
2016-Nov-10 10:26N 35°26' E 139°42'0 0.1
2016-Nov-10 09:32N 35°26' E 139°42'0 0.0
2016-Nov-10 08:32N 35°26' E 139°42'0 0.0
2016-Nov-10 07:32N 35°26' E 139°42'0 0.0
2016-Nov-10 06:32N 35°26' E 139°42'0 0.0
2016-Nov-10 05:32N 35°26' E 139°42'0 0.0
2016-Nov-10 04:26N 35°26' E 139°42'0 0.0
2016-Nov-10 00:32N 35°26' E 139°42'0 0.0
2016-Nov-09 22:33N 35°26' E 139°42'0 0.0
2016-Nov-09 20:37N 35°26' E 139°42'0 0.0
2016-Nov-09 19:53N 35°26' E 139°42'0 0.0
2016-Nov-09 19:06N 35°26' E 139°42'0 0.0
2016-Nov-09 18:33N 35°26' E 139°42'0 0.0
2016-Nov-09 17:34N 35°26' E 139°42'0 0.0
2016-Nov-09 15:33N 35°26' E 139°42'0 0.0
2016-Nov-09 13:33N 35°26' E 139°42'0 0.0
2016-Nov-09 08:33N 35°26' E 139°42'0 0.0
2016-Nov-09 07:33N 35°26' E 139°42'0 0.0
2016-Nov-09 05:33N 35°26' E 139°42'0 0.1
2016-Nov-09 04:33N 35°26' E 139°42'8 4.1
2016-Nov-09 02:33N 35°18' E 139°45'  

Dump ship's entire track history